sensor_id;sensor_type;location;lat;lon;timestamp;P1;P2;P0
36453;PMS5003;22478;51.740;-1.314;2022-12-07T00:00:35;445;443;
36453;PMS5003;22478;51.740;-1.314;2022-12-07T00:03:02;349;345;
36453;PMS5003;22478;51.740;-1.314;2022-12-07T00:05:29;365;359;
36453;PMS5003;22478;51.740;-1.314;2022-12-07T00:07:57;350;350;
36453;PMS5003;22478;51.740;-1.314;2022-12-07T00:10:24;335;333;
36453;PMS5003;22478;51.740;-1.314;2022-12-07T00:12:51;335;333;
36453;PMS5003;22478;51.740;-1.314;2022-12-07T00:15:18;347;342;
36453;PMS5003;22478;51.740;-1.314;2022-12-07T00:17:45;317;314;
36453;PMS5003;22478;51.740;-1.314;2022-12-07T00:20:13;335;335;
36453;PMS5003;22478;51.740;-1.314;2022-12-07T00:22:40;334;332;
36453;PMS5003;22478;51.740;-1.314;2022-12-07T00:25:07;340;339;
36453;PMS5003;22478;51.740;-1.314;2022-12-07T00:27:34;325;322;
36453;PMS5003;22478;51.740;-1.314;2022-12-07T00:30:02;326;320;
36453;PMS5003;22478;51.740;-1.314;2022-12-07T00:32:29;329;328;
36453;PMS5003;22478;51.740;-1.314;2022-12-07T00:34:57;343;335;
36453;PMS5003;22478;51.740;-1.314;2022-12-07T00:37:24;348;345;
36453;PMS5003;22478;51.740;-1.314;2022-12-07T00:39:51;326;321;
36453;PMS5003;22478;51.740;-1.314;2022-12-07T00:42:18;336;329;
36453;PMS5003;22478;51.740;-1.314;2022-12-07T00:44:45;356;346;
36453;PMS5003;22478;51.740;-1.314;2022-12-07T00:47:12;370;366;
36453;PMS5003;22478;51.740;-1.314;2022-12-07T00:49:39;362;362;
36453;PMS5003;22478;51.740;-1.314;2022-12-07T00:52:06;379;379;
36453;PMS5003;22478;51.740;-1.314;2022-12-07T00:54:34;380;376;
36453;PMS5003;22478;51.740;-1.314;2022-12-07T00:57:00;401;396;
36453;PMS5003;22478;51.740;-1.314;2022-12-07T00:59:27;401;396;
36453;PMS5003;22478;51.740;-1.314;2022-12-07T01:01:54;408;399;
36453;PMS5003;22478;51.740;-1.314;2022-12-07T01:04:22;368;364;
36453;PMS5003;22478;51.740;-1.314;2022-12-07T01:06:49;347;342;
36453;PMS5003;22478;51.740;-1.314;2022-12-07T01:09:16;369;369;
36453;PMS5003;22478;51.740;-1.314;2022-12-07T01:11:43;350;348;
36453;PMS5003;22478;51.740;-1.314;2022-12-07T01:14:10;415;415;
36453;PMS5003;22478;51.740;-1.314;2022-12-07T01:16:38;436;436;
36453;PMS5003;22478;51.740;-1.314;2022-12-07T01:19:05;339;336;
36453;PMS5003;22478;51.740;-1.314;2022-12-07T01:21:32;383;382;
36453;PMS5003;22478;51.740;-1.314;2022-12-07T01:24:02;427;425;
36453;PMS5003;22478;51.740;-1.314;2022-12-07T01:26:31;367;365;
36453;PMS5003;22478;51.740;-1.314;2022-12-07T01:28:57;425;420;
36453;PMS5003;22478;51.740;-1.314;2022-12-07T01:31:25;433;428;
36453;PMS5003;22478;51.740;-1.314;2022-12-07T01:33:54;334;331;
36453;PMS5003;22478;51.740;-1.314;2022-12-07T01:36:23;379;374;
36453;PMS5003;22478;51.740;-1.314;2022-12-07T01:38:55;386;382;
36453;PMS5003;22478;51.740;-1.314;2022-12-07T01:41:25;393;392;
36453;PMS5003;22478;51.740;-1.314;2022-12-07T01:44:11;356;356;
36453;PMS5003;22478;51.740;-1.314;2022-12-07T01:46:42;351;348;
36453;PMS5003;22478;51.740;-1.314;2022-12-07T01:49:12;349;343;
36453;PMS5003;22478;51.740;-1.314;2022-12-07T01:51:45;351;350;
36453;PMS5003;22478;51.740;-1.314;2022-12-07T01:54:15;349;342;
36453;PMS5003;22478;51.740;-1.314;2022-12-07T01:56:45;355;350;
36453;PMS5003;22478;51.740;-1.314;2022-12-07T01:59:17;362;357;
36453;PMS5003;22478;51.740;-1.314;2022-12-07T02:01:47;347;339;
36453;PMS5003;22478;51.740;-1.314;2022-12-07T02:04:15;356;353;
36453;PMS5003;22478;51.740;-1.314;2022-12-07T02:06:43;331;328;
36453;PMS5003;22478;51.740;-1.314;2022-12-07T02:09:12;351;344;
36453;PMS5003;22478;51.740;-1.314;2022-12-07T02:11:40;348;345;
36453;PMS5003;22478;51.740;-1.314;2022-12-07T02:14:07;348;345;
36453;PMS5003;22478;51.740;-1.314;2022-12-07T02:16:38;339;338;
36453;PMS5003;22478;51.740;-1.314;2022-12-07T02:20:26;362;360;
36453;PMS5003;22478;51.740;-1.314;2022-12-07T02:23:03;370;369;
36453;PMS5003;22478;51.740;-1.314;2022-12-07T02:25:55;350;344;
36453;PMS5003;22478;51.740;-1.314;2022-12-07T02:28:47;351;344;
36453;PMS5003;22478;51.740;-1.314;2022-12-07T02:31:27;342;337;
36453;PMS5003;22478;51.740;-1.314;2022-12-07T02:33:57;352;346;
36453;PMS5003;22478;51.740;-1.314;2022-12-07T02:36:35;334;329;
36453;PMS5003;22478;51.740;-1.314;2022-12-07T02:39:09;334;332;
36453;PMS5003;22478;51.740;-1.314;2022-12-07T02:41:42;394;390;
36453;PMS5003;22478;51.740;-1.314;2022-12-07T02:44:14;436;433;
36453;PMS5003;22478;51.740;-1.314;2022-12-07T02:46:47;377;372;
36453;PMS5003;22478;51.740;-1.314;2022-12-07T02:49:17;335;334;
36453;PMS5003;22478;51.740;-1.314;2022-12-07T02:51:48;351;344;
36453;PMS5003;22478;51.740;-1.314;2022-12-07T02:54:16;331;327;
36453;PMS5003;22478;51.740;-1.314;2022-12-07T02:56:46;375;372;
36453;PMS5003;22478;51.740;-1.314;2022-12-07T02:59:17;365;359;
36453;PMS5003;22478;51.740;-1.314;2022-12-07T03:01:57;452;449;
36453;PMS5003;22478;51.740;-1.314;2022-12-07T03:04:39;475;475;
36453;PMS5003;22478;51.740;-1.314;2022-12-07T03:07:24;329;321;
36453;PMS5003;22478;51.740;-1.314;2022-12-07T03:10:01;317;315;
36453;PMS5003;22478;51.740;-1.314;2022-12-07T03:12:35;354;353;
36453;PMS5003;22478;51.740;-1.314;2022-12-07T03:15:13;522;518;
36453;PMS5003;22478;51.740;-1.314;2022-12-07T03:17:44;406;403;
36453;PMS5003;22478;51.740;-1.314;2022-12-07T03:20:15;361;358;
36453;PMS5003;22478;51.740;-1.314;2022-12-07T03:22:48;499;496;
36453;PMS5003;22478;51.740;-1.314;2022-12-07T03:25:17;340;339;
36453;PMS5003;22478;51.740;-1.314;2022-12-07T03:27:45;526;523;
36453;PMS5003;22478;51.740;-1.314;2022-12-07T03:30:18;339;332;
36453;PMS5003;22478;51.740;-1.314;2022-12-07T03:32:48;342;338;
36453;PMS5003;22478;51.740;-1.314;2022-12-07T03:35:19;316;315;
36453;PMS5003;22478;51.740;-1.314;2022-12-07T03:37:52;321;321;
36453;PMS5003;22478;51.740;-1.314;2022-12-07T03:40:24;288;286;
36453;PMS5003;22478;51.740;-1.314;2022-12-07T03:42:57;297;297;
36453;PMS5003;22478;51.740;-1.314;2022-12-07T03:45:28;308;306;
36453;PMS5003;22478;51.740;-1.314;2022-12-07T03:48:04;317;312;
36453;PMS5003;22478;51.740;-1.314;2022-12-07T03:50:37;345;345;
36453;PMS5003;22478;51.740;-1.314;2022-12-07T03:53:11;389;385;
36453;PMS5003;22478;51.740;-1.314;2022-12-07T03:55:42;392;390;
36453;PMS5003;22478;51.740;-1.314;2022-12-07T03:58:12;404;401;
36453;PMS5003;22478;51.740;-1.314;2022-12-07T04:00:42;317;308;
36453;PMS5003;22478;51.740;-1.314;2022-12-07T04:03:10;401;401;
36453;PMS5003;22478;51.740;-1.314;2022-12-07T04:05:37;409;405;
36453;PMS5003;22478;51.740;-1.314;2022-12-07T04:08:05;515;509;
36453;PMS5003;22478;51.740;-1.314;2022-12-07T04:10:32;529;526;
36453;PMS5003;22478;51.740;-1.314;2022-12-07T04:12:59;513;512;
36453;PMS5003;22478;51.740;-1.314;2022-12-07T04:15:26;343;342;
36453;PMS5003;22478;51.740;-1.314;2022-12-07T04:17:54;339;333;
36453;PMS5003;22478;51.740;-1.314;2022-12-07T04:20:21;354;353;
36453;PMS5003;22478;51.740;-1.314;2022-12-07T04:22:48;399;391;
36453;PMS5003;22478;51.740;-1.314;2022-12-07T04:25:15;350;345;
36453;PMS5003;22478;51.740;-1.314;2022-12-07T04:27:42;345;339;
36453;PMS5003;22478;51.740;-1.314;2022-12-07T04:30:09;398;396;
36453;PMS5003;22478;51.740;-1.314;2022-12-07T04:32:37;340;339;
36453;PMS5003;22478;51.740;-1.314;2022-12-07T04:35:04;344;341;
36453;PMS5003;22478;51.740;-1.314;2022-12-07T04:37:32;361;361;
36453;PMS5003;22478;51.740;-1.314;2022-12-07T04:39:59;326;324;
36453;PMS5003;22478;51.740;-1.314;2022-12-07T04:42:27;348;344;
36453;PMS5003;22478;51.740;-1.314;2022-12-07T04:44:54;340;335;
36453;PMS5003;22478;51.740;-1.314;2022-12-07T04:47:21;412;410;
36453;PMS5003;22478;51.740;-1.314;2022-12-07T04:49:47;408;406;
36453;PMS5003;22478;51.740;-1.314;2022-12-07T04:52:14;527;524;
36453;PMS5003;22478;51.740;-1.314;2022-12-07T04:54:42;485;480;
36453;PMS5003;22478;51.740;-1.314;2022-12-07T04:57:09;299;297;
36453;PMS5003;22478;51.740;-1.314;2022-12-07T04:59:36;439;439;
36453;PMS5003;22478;51.740;-1.314;2022-12-07T05:02:03;348;342;
36453;PMS5003;22478;51.740;-1.314;2022-12-07T05:04:30;316;314;
36453;PMS5003;22478;51.740;-1.314;2022-12-07T05:06:57;355;353;
36453;PMS5003;22478;51.740;-1.314;2022-12-07T05:09:24;359;357;
36453;PMS5003;22478;51.740;-1.314;2022-12-07T05:11:51;389;389;
36453;PMS5003;22478;51.740;-1.314;2022-12-07T05:14:18;383;381;
36453;PMS5003;22478;51.740;-1.314;2022-12-07T05:16:46;312;309;
36453;PMS5003;22478;51.740;-1.314;2022-12-07T05:19:15;294;293;
36453;PMS5003;22478;51.740;-1.314;2022-12-07T05:21:42;301;294;
36453;PMS5003;22478;51.740;-1.314;2022-12-07T05:24:10;314;309;
36453;PMS5003;22478;51.740;-1.314;2022-12-07T05:26:38;401;396;
36453;PMS5003;22478;51.740;-1.314;2022-12-07T05:29:05;399;396;
36453;PMS5003;22478;51.740;-1.314;2022-12-07T05:31:33;413;409;
36453;PMS5003;22478;51.740;-1.314;2022-12-07T05:34:00;379;376;
36453;PMS5003;22478;51.740;-1.314;2022-12-07T05:36:27;372;370;
36453;PMS5003;22478;51.740;-1.314;2022-12-07T05:38:54;329;329;
36453;PMS5003;22478;51.740;-1.314;2022-12-07T05:41:22;314;314;
36453;PMS5003;22478;51.740;-1.314;2022-12-07T05:43:49;305;302;
36453;PMS5003;22478;51.740;-1.314;2022-12-07T05:46:16;295;294;
36453;PMS5003;22478;51.740;-1.314;2022-12-07T05:48:43;386;385;
36453;PMS5003;22478;51.740;-1.314;2022-12-07T05:51:10;376;376;
36453;PMS5003;22478;51.740;-1.314;2022-12-07T05:53:37;294;290;
36453;PMS5003;22478;51.740;-1.314;2022-12-07T05:56:05;324;324;
36453;PMS5003;22478;51.740;-1.314;2022-12-07T05:58:32;285;280;
36453;PMS5003;22478;51.740;-1.314;2022-12-07T06:00:59;305;302;
36453;PMS5003;22478;51.740;-1.314;2022-12-07T06:03:26;321;319;
36453;PMS5003;22478;51.740;-1.314;2022-12-07T06:05:54;285;282;
36453;PMS5003;22478;51.740;-1.314;2022-12-07T06:08:21;356;355;
36453;PMS5003;22478;51.740;-1.314;2022-12-07T06:10:48;387;386;
36453;PMS5003;22478;51.740;-1.314;2022-12-07T06:13:16;414;411;
36453;PMS5003;22478;51.740;-1.314;2022-12-07T06:15:43;324;323;
36453;PMS5003;22478;51.740;-1.314;2022-12-07T06:18:10;343;343;
36453;PMS5003;22478;51.740;-1.314;2022-12-07T06:20:37;387;386;
36453;PMS5003;22478;51.740;-1.314;2022-12-07T06:23:05;350;344;
36453;PMS5003;22478;51.740;-1.314;2022-12-07T06:25:31;342;340;
36453;PMS5003;22478;51.740;-1.314;2022-12-07T06:27:58;292;290;
36453;PMS5003;22478;51.740;-1.314;2022-12-07T06:30:26;395;395;
36453;PMS5003;22478;51.740;-1.314;2022-12-07T06:32:53;364;356;
36453;PMS5003;22478;51.740;-1.314;2022-12-07T06:35:20;357;350;
36453;PMS5003;22478;51.740;-1.314;2022-12-07T06:37:47;447;436;
36453;PMS5003;22478;51.740;-1.314;2022-12-07T06:40:14;369;362;
36453;PMS5003;22478;51.740;-1.314;2022-12-07T06:42:42;367;366;
36453;PMS5003;22478;51.740;-1.314;2022-12-07T06:45:09;386;383;
36453;PMS5003;22478;51.740;-1.314;2022-12-07T06:47:36;451;447;
36453;PMS5003;22478;51.740;-1.314;2022-12-07T06:50:04;353;351;
36453;PMS5003;22478;51.740;-1.314;2022-12-07T06:52:32;434;433;
36453;PMS5003;22478;51.740;-1.314;2022-12-07T06:55:00;389;380;
36453;PMS5003;22478;51.740;-1.314;2022-12-07T06:57:27;389;387;
36453;PMS5003;22478;51.740;-1.314;2022-12-07T06:59:54;349;346;
36453;PMS5003;22478;51.740;-1.314;2022-12-07T07:02:21;348;343;
36453;PMS5003;22478;51.740;-1.314;2022-12-07T07:04:48;363;363;
36453;PMS5003;22478;51.740;-1.314;2022-12-07T07:07:15;342;335;
36453;PMS5003;22478;51.740;-1.314;2022-12-07T07:09:42;317;311;
36453;PMS5003;22478;51.740;-1.314;2022-12-07T07:12:09;368;366;
36453;PMS5003;22478;51.740;-1.314;2022-12-07T07:14:36;360;356;
36453;PMS5003;22478;51.740;-1.314;2022-12-07T07:17:03;404;401;
36453;PMS5003;22478;51.740;-1.314;2022-12-07T07:19:31;393;387;
36453;PMS5003;22478;51.740;-1.314;2022-12-07T07:21:58;376;373;
36453;PMS5003;22478;51.740;-1.314;2022-12-07T07:24:25;359;358;
36453;PMS5003;22478;51.740;-1.314;2022-12-07T07:26:51;392;389;
36453;PMS5003;22478;51.740;-1.314;2022-12-07T07:29:19;301;295;
36453;PMS5003;22478;51.740;-1.314;2022-12-07T07:31:46;256;251;
36453;PMS5003;22478;51.740;-1.314;2022-12-07T07:34:13;258;252;
36453;PMS5003;22478;51.740;-1.314;2022-12-07T07:36:40;288;281;
36453;PMS5003;22478;51.740;-1.314;2022-12-07T07:39:07;255;253;
36453;PMS5003;22478;51.740;-1.314;2022-12-07T07:41:36;365;365;
36453;PMS5003;22478;51.740;-1.314;2022-12-07T07:44:03;380;373;
36453;PMS5003;22478;51.740;-1.314;2022-12-07T07:46:31;331;329;
36453;PMS5003;22478;51.740;-1.314;2022-12-07T07:48:58;371;371;
36453;PMS5003;22478;51.740;-1.314;2022-12-07T07:51:25;336;332;
36453;PMS5003;22478;51.740;-1.314;2022-12-07T07:53:52;340;334;
36453;PMS5003;22478;51.740;-1.314;2022-12-07T07:56:19;302;300;
36453;PMS5003;22478;51.740;-1.314;2022-12-07T07:58:46;365;360;
36453;PMS5003;22478;51.740;-1.314;2022-12-07T08:01:13;288;283;
36453;PMS5003;22478;51.740;-1.314;2022-12-07T08:03:40;285;284;
36453;PMS5003;22478;51.740;-1.314;2022-12-07T08:06:08;334;326;
36453;PMS5003;22478;51.740;-1.314;2022-12-07T08:08:34;401;397;
36453;PMS5003;22478;51.740;-1.314;2022-12-07T08:11:04;379;377;
36453;PMS5003;22478;51.740;-1.314;2022-12-07T08:13:32;415;407;
36453;PMS5003;22478;51.740;-1.314;2022-12-07T08:15:59;420;417;
36453;PMS5003;22478;51.740;-1.314;2022-12-07T08:18:31;380;375;
36453;PMS5003;22478;51.740;-1.314;2022-12-07T08:21:01;370;370;
36453;PMS5003;22478;51.740;-1.314;2022-12-07T08:23:29;325;322;
36453;PMS5003;22478;51.740;-1.314;2022-12-07T08:25:59;326;326;
36453;PMS5003;22478;51.740;-1.314;2022-12-07T08:28:27;409;405;
36453;PMS5003;22478;51.740;-1.314;2022-12-07T08:30:58;391;390;
36453;PMS5003;22478;51.740;-1.314;2022-12-07T08:33:25;416;412;
36453;PMS5003;22478;51.740;-1.314;2022-12-07T08:35:52;387;381;
36453;PMS5003;22478;51.740;-1.314;2022-12-07T08:38:19;347;335;
36453;PMS5003;22478;51.740;-1.314;2022-12-07T08:40:52;315;308;
36453;PMS5003;22478;51.740;-1.314;2022-12-07T08:43:20;358;355;
36453;PMS5003;22478;51.740;-1.314;2022-12-07T08:45:47;359;352;
36453;PMS5003;22478;51.740;-1.314;2022-12-07T08:48:15;352;344;
36453;PMS5003;22478;51.740;-1.314;2022-12-07T08:50:42;352;350;
36453;PMS5003;22478;51.740;-1.314;2022-12-07T08:53:10;366;365;
36453;PMS5003;22478;51.740;-1.314;2022-12-07T08:55:37;393;385;
36453;PMS5003;22478;51.740;-1.314;2022-12-07T08:58:04;335;331;
36453;PMS5003;22478;51.740;-1.314;2022-12-07T09:00:31;350;345;
36453;PMS5003;22478;51.740;-1.314;2022-12-07T09:02:59;356;349;
36453;PMS5003;22478;51.740;-1.314;2022-12-07T09:05:26;327;327;
36453;PMS5003;22478;51.740;-1.314;2022-12-07T09:07:54;370;368;
36453;PMS5003;22478;51.740;-1.314;2022-12-07T09:10:26;339;335;
36453;PMS5003;22478;51.740;-1.314;2022-12-07T09:12:54;401;397;
36453;PMS5003;22478;51.740;-1.314;2022-12-07T09:15:21;360;360;
36453;PMS5003;22478;51.740;-1.314;2022-12-07T09:17:49;406;401;
36453;PMS5003;22478;51.740;-1.314;2022-12-07T09:20:16;365;360;
36453;PMS5003;22478;51.740;-1.314;2022-12-07T09:22:43;340;337;
36453;PMS5003;22478;51.740;-1.314;2022-12-07T09:25:10;349;343;
36453;PMS5003;22478;51.740;-1.314;2022-12-07T09:27:37;401;393;
36453;PMS5003;22478;51.740;-1.314;2022-12-07T09:30:05;388;387;
36453;PMS5003;22478;51.740;-1.314;2022-12-07T09:32:34;350;343;
36453;PMS5003;22478;51.740;-1.314;2022-12-07T09:35:01;357;349;
36453;PMS5003;22478;51.740;-1.314;2022-12-07T09:37:29;320;317;
36453;PMS5003;22478;51.740;-1.314;2022-12-07T09:39:57;332;329;
36453;PMS5003;22478;51.740;-1.314;2022-12-07T09:42:26;311;309;
36453;PMS5003;22478;51.740;-1.314;2022-12-07T09:44:56;336;336;
36453;PMS5003;22478;51.740;-1.314;2022-12-07T09:47:24;332;332;
36453;PMS5003;22478;51.740;-1.314;2022-12-07T09:49:52;297;295;
36453;PMS5003;22478;51.740;-1.314;2022-12-07T09:52:25;333;330;
36453;PMS5003;22478;51.740;-1.314;2022-12-07T09:54:54;310;310;
36453;PMS5003;22478;51.740;-1.314;2022-12-07T09:57:25;302;302;
36453;PMS5003;22478;51.740;-1.314;2022-12-07T09:59:58;317;310;
36453;PMS5003;22478;51.740;-1.314;2022-12-07T10:02:33;350;341;
36453;PMS5003;22478;51.740;-1.314;2022-12-07T10:05:03;365;363;
36453;PMS5003;22478;51.740;-1.314;2022-12-07T10:07:32;374;371;
36453;PMS5003;22478;51.740;-1.314;2022-12-07T10:09:59;371;362;
36453;PMS5003;22478;51.740;-1.314;2022-12-07T10:12:29;358;357;
36453;PMS5003;22478;51.740;-1.314;2022-12-07T10:15:00;372;370;
36453;PMS5003;22478;51.740;-1.314;2022-12-07T10:17:31;323;321;
36453;PMS5003;22478;51.740;-1.314;2022-12-07T10:20:34;338;333;
36453;PMS5003;22478;51.740;-1.314;2022-12-07T10:23:02;320;318;
36453;PMS5003;22478;51.740;-1.314;2022-12-07T10:25:31;382;374;
36453;PMS5003;22478;51.740;-1.314;2022-12-07T10:28:01;377;374;
36453;PMS5003;22478;51.740;-1.314;2022-12-07T10:30:46;334;332;
36453;PMS5003;22478;51.740;-1.314;2022-12-07T10:33:34;329;326;
36453;PMS5003;22478;51.740;-1.314;2022-12-07T10:36:16;329;327;
36453;PMS5003;22478;51.740;-1.314;2022-12-07T10:38:47;311;307;
36453;PMS5003;22478;51.740;-1.314;2022-12-07T10:41:16;318;315;
36453;PMS5003;22478;51.740;-1.314;2022-12-07T10:43:47;334;331;
36453;PMS5003;22478;51.740;-1.314;2022-12-07T10:46:22;320;320;
36453;PMS5003;22478;51.740;-1.314;2022-12-07T10:50:23;314;310;
36453;PMS5003;22478;51.740;-1.314;2022-12-07T10:53:07;330;330;
36453;PMS5003;22478;51.740;-1.314;2022-12-07T10:55:53;333;330;
36453;PMS5003;22478;51.740;-1.314;2022-12-07T10:58:38;323;322;
36453;PMS5003;22478;51.740;-1.314;2022-12-07T11:01:21;319;313;
36453;PMS5003;22478;51.740;-1.314;2022-12-07T11:03:55;278;276;
36453;PMS5003;22478;51.740;-1.314;2022-12-07T11:06:42;342;341;
36453;PMS5003;22478;51.740;-1.314;2022-12-07T11:09:24;350;345;
36453;PMS5003;22478;51.740;-1.314;2022-12-07T11:12:06;318;318;
36453;PMS5003;22478;51.740;-1.314;2022-12-07T11:14:44;305;304;
36453;PMS5003;22478;51.740;-1.314;2022-12-07T11:17:20;328;326;
36453;PMS5003;22478;51.740;-1.314;2022-12-07T11:19:59;301;301;
36453;PMS5003;22478;51.740;-1.314;2022-12-07T11:22:34;355;350;
36453;PMS5003;22478;51.740;-1.314;2022-12-07T11:25:15;408;408;
36453;PMS5003;22478;51.740;-1.314;2022-12-07T11:27:50;352;352;
36453;PMS5003;22478;51.740;-1.314;2022-12-07T11:30:32;323;322;
36453;PMS5003;22478;51.740;-1.314;2022-12-07T11:33:09;302;302;
36453;PMS5003;22478;51.740;-1.314;2022-12-07T11:35:47;161;158;
36453;PMS5003;22478;51.740;-1.314;2022-12-07T11:38:23;319;318;
36453;PMS5003;22478;51.740;-1.314;2022-12-07T11:40:59;370;370;
36453;PMS5003;22478;51.740;-1.314;2022-12-07T11:43:32;256;255;
36453;PMS5003;22478;51.740;-1.314;2022-12-07T11:46:03;190;190;
36453;PMS5003;22478;51.740;-1.314;2022-12-07T11:48:37;202;202;
36453;PMS5003;22478;51.740;-1.314;2022-12-07T11:51:09;249;248;
36453;PMS5003;22478;51.740;-1.314;2022-12-07T11:53:38;312;312;
36453;PMS5003;22478;51.740;-1.314;2022-12-07T11:56:11;333;332;
36453;PMS5003;22478;51.740;-1.314;2022-12-07T11:58:44;449;448;
36453;PMS5003;22478;51.740;-1.314;2022-12-07T11:58:53;448;447;
36453;PMS5003;22478;51.740;-1.314;2022-12-07T12:01:26;342;342;
36453;PMS5003;22478;51.740;-1.314;2022-12-07T12:04:05;293;293;
36453;PMS5003;22478;51.740;-1.314;2022-12-07T12:06:39;261;260;
36453;PMS5003;22478;51.740;-1.314;2022-12-07T12:09:10;337;336;
36453;PMS5003;22478;51.740;-1.314;2022-12-07T12:11:46;228;228;
36453;PMS5003;22478;51.740;-1.314;2022-12-07T12:14:29;423;423;
36453;PMS5003;22478;51.740;-1.314;2022-12-07T12:17:19;460;458;
36453;PMS5003;22478;51.740;-1.314;2022-12-07T12:20:00;211;211;
36453;PMS5003;22478;51.740;-1.314;2022-12-07T12:22:33;148;148;
36453;PMS5003;22478;51.740;-1.314;2022-12-07T12:25:04;179;179;
36453;PMS5003;22478;51.740;-1.314;2022-12-07T12:27:37;192;191;
36453;PMS5003;22478;51.740;-1.314;2022-12-07T12:30:22;191;191;
36453;PMS5003;22478;51.740;-1.314;2022-12-07T12:32:52;206;206;
36453;PMS5003;22478;51.740;-1.314;2022-12-07T12:35:31;234;234;
36453;PMS5003;22478;51.740;-1.314;2022-12-07T12:38:32;258;258;
36453;PMS5003;22478;51.740;-1.314;2022-12-07T12:41:50;367;367;
36453;PMS5003;22478;51.740;-1.314;2022-12-07T12:44:38;439;439;
36453;PMS5003;22478;51.740;-1.314;2022-12-07T12:47:38;372;372;
36453;PMS5003;22478;51.740;-1.314;2022-12-07T12:50:15;357;357;
36453;PMS5003;22478;51.740;-1.314;2022-12-07T12:50:18;357;357;
36453;PMS5003;22478;51.740;-1.314;2022-12-07T12:52:55;227;226;
36453;PMS5003;22478;51.740;-1.314;2022-12-07T12:56:13;230;230;
36453;PMS5003;22478;51.740;-1.314;2022-12-07T12:59:18;232;232;
36453;PMS5003;22478;51.740;-1.314;2022-12-07T13:01:51;243;243;
36453;PMS5003;22478;51.740;-1.314;2022-12-07T13:04:29;297;297;
36453;PMS5003;22478;51.740;-1.314;2022-12-07T13:07:47;282;281;
36453;PMS5003;22478;51.740;-1.314;2022-12-07T13:10:21;312;312;
36453;PMS5003;22478;51.740;-1.314;2022-12-07T13:12:58;0;0;
36453;PMS5003;22478;51.740;-1.314;2022-12-07T13:15:32;0;0;
36453;PMS5003;22478;51.740;-1.314;2022-12-07T13:18:04;0;0;
36453;PMS5003;22478;51.740;-1.314;2022-12-07T13:20:51;0;0;
36453;PMS5003;22478;51.740;-1.314;2022-12-07T13:23:22;0;0;
36453;PMS5003;22478;51.740;-1.314;2022-12-07T13:25:55;5;5;
36453;PMS5003;22478;51.740;-1.314;2022-12-07T13:28:33;10;10;
36453;PMS5003;22478;51.740;-1.314;2022-12-07T13:31:09;0;0;
36453;PMS5003;22478;51.740;-1.314;2022-12-07T13:33:43;33;33;
36453;PMS5003;22478;51.740;-1.314;2022-12-07T13:36:14;52;52;
36453;PMS5003;22478;51.740;-1.314;2022-12-07T13:38:49;0;0;
36453;PMS5003;22478;51.740;-1.314;2022-12-07T13:41:19;1;1;
36453;PMS5003;22478;51.740;-1.314;2022-12-07T13:43:50;0;0;
36453;PMS5003;22478;51.740;-1.314;2022-12-07T13:46:22;0;0;
36453;PMS5003;22478;51.740;-1.314;2022-12-07T13:48:56;0;0;
36453;PMS5003;22478;51.740;-1.314;2022-12-07T13:51:23;0;0;
36453;PMS5003;22478;51.740;-1.314;2022-12-07T13:53:52;0;0;
36453;PMS5003;22478;51.740;-1.314;2022-12-07T13:56:36;10;10;
36453;PMS5003;22478;51.740;-1.314;2022-12-07T13:59:04;12;12;
36453;PMS5003;22478;51.740;-1.314;2022-12-07T14:01:38;11;11;
36453;PMS5003;22478;51.740;-1.314;2022-12-07T14:04:38;8;8;
36453;PMS5003;22478;51.740;-1.314;2022-12-07T14:07:23;6;6;
36453;PMS5003;22478;51.740;-1.314;2022-12-07T14:09:54;1;1;
36453;PMS5003;22478;51.740;-1.314;2022-12-07T14:12:23;0;0;
36453;PMS5003;22478;51.740;-1.314;2022-12-07T14:14:52;5;5;
36453;PMS5003;22478;51.740;-1.314;2022-12-07T14:17:22;0;0;
36453;PMS5003;22478;51.740;-1.314;2022-12-07T14:19:51;0;0;
36453;PMS5003;22478;51.740;-1.314;2022-12-07T14:22:22;3;3;
36453;PMS5003;22478;51.740;-1.314;2022-12-07T14:24:57;0;0;
36453;PMS5003;22478;51.740;-1.314;2022-12-07T14:27:30;3;3;
36453;PMS5003;22478;51.740;-1.314;2022-12-07T14:30:00;3;3;
36453;PMS5003;22478;51.740;-1.314;2022-12-07T14:32:28;2;2;
36453;PMS5003;22478;51.740;-1.314;2022-12-07T14:34:58;2;2;
36453;PMS5003;22478;51.740;-1.314;2022-12-07T14:37:28;0;0;
36453;PMS5003;22478;51.740;-1.314;2022-12-07T14:39:57;0;0;
36453;PMS5003;22478;51.740;-1.314;2022-12-07T14:42:26;3;3;
36453;PMS5003;22478;51.740;-1.314;2022-12-07T14:44:54;6;6;
36453;PMS5003;22478;51.740;-1.314;2022-12-07T14:47:23;1;1;
36453;PMS5003;22478;51.740;-1.314;2022-12-07T14:49:51;2;2;
36453;PMS5003;22478;51.740;-1.314;2022-12-07T14:52:19;0;0;
36453;PMS5003;22478;51.740;-1.314;2022-12-07T14:54:49;4;4;
36453;PMS5003;22478;51.740;-1.314;2022-12-07T14:57:16;0;0;
36453;PMS5003;22478;51.740;-1.314;2022-12-07T14:59:43;2;2;
36453;PMS5003;22478;51.740;-1.314;2022-12-07T15:02:11;0;0;
36453;PMS5003;22478;51.740;-1.314;2022-12-07T15:04:39;12;12;
36453;PMS5003;22478;51.740;-1.314;2022-12-07T15:07:10;5;5;
36453;PMS5003;22478;51.740;-1.314;2022-12-07T15:09:44;7;7;
36453;PMS5003;22478;51.740;-1.314;2022-12-07T15:12:11;0;0;
36453;PMS5003;22478;51.740;-1.314;2022-12-07T15:14:39;0;0;
36453;PMS5003;22478;51.740;-1.314;2022-12-07T15:17:06;0;0;
36453;PMS5003;22478;51.740;-1.314;2022-12-07T15:19:36;6;6;
36453;PMS5003;22478;51.740;-1.314;2022-12-07T15:22:03;0;0;
36453;PMS5003;22478;51.740;-1.314;2022-12-07T15:24:30;0;0;
36453;PMS5003;22478;51.740;-1.314;2022-12-07T15:26:57;0;0;
36453;PMS5003;22478;51.740;-1.314;2022-12-07T15:29:25;0;0;
36453;PMS5003;22478;51.740;-1.314;2022-12-07T15:31:52;0;0;
36453;PMS5003;22478;51.740;-1.314;2022-12-07T15:34:19;0;0;
36453;PMS5003;22478;51.740;-1.314;2022-12-07T15:36:47;0;0;
36453;PMS5003;22478;51.740;-1.314;2022-12-07T15:39:14;2;2;
36453;PMS5003;22478;51.740;-1.314;2022-12-07T15:41:42;0;0;
36453;PMS5003;22478;51.740;-1.314;2022-12-07T15:44:10;0;0;
36453;PMS5003;22478;51.740;-1.314;2022-12-07T15:46:39;0;0;
36453;PMS5003;22478;51.740;-1.314;2022-12-07T15:49:09;0;0;
36453;PMS5003;22478;51.740;-1.314;2022-12-07T15:51:39;0;0;
36453;PMS5003;22478;51.740;-1.314;2022-12-07T15:54:07;0;0;
36453;PMS5003;22478;51.740;-1.314;2022-12-07T15:56:35;0;0;
36453;PMS5003;22478;51.740;-1.314;2022-12-07T15:59:02;5;5;
36453;PMS5003;22478;51.740;-1.314;2022-12-07T16:01:29;61;61;
36453;PMS5003;22478;51.740;-1.314;2022-12-07T16:03:57;31;31;